Hovedside
METAR-TAF:

METAR-TAF

Lufthavner :

Zeltweg, Østerrike

breddegrad: 47-12N, lengdegrad: 014-45E, høyde over havet: 677 m

Gjeldene værobservasjon

Denne rapporten ble laget for 20 minutter siden, klokken 05:20 UTC
Flau vind
Temperatur 17°C
Luftfuktighet 88%
Trykk 1016 hPa
Sikt 10 km eller mer
Få skyer i en høyde av 6000 ft
Spredte skyer i en høyde av 9000 ft
Brutte skyer i en høyde av 10000 ft

METAR: LOXZ 220520Z 00000KT 9999 FEW060 SCT090 BKN100 17/15 Q1016 NOSIG

Tid: 07:40 (05:40 UTC)

Varsel

Denne rapporten ble laget for 18 timer og 25 minutter siden, klokken 11:15 UTC
Varsel gyldig fra 21. klokken 12 UTC til 21. klokken 21 UTC
Vind 3 kt fra skiftende retning
Sikt 10 km eller mer
Få skyer i en høyde av 6000 ft

TAF: LOXZ 211115Z 2112/2121 VRB03KT 9999 FEW060

Værobservasjoner og værvarsel for over 4000 flyplasser (METAR- og TAF-rapporter).

Tilgjengelige stasjoner er representert av de røde og gule prikkene på kartet.

Hold musepekeren over prikken for å se navnet på stasjonen.

Klikk så for å se værobservasjoner og -varsler.

For å forandre kartet kan du klikke på den grønne knappen med svart kryss for å zoome inn, på den grønne knappen med strek for å zoome ut, eller på de grønne pilene for å se tilstøtende kart.


METAR-TAF: